Time;durP1;ratioP1;P1;durP2;ratioP2;P2;SDS_P1;SDS_P2;PMS_P1;PMS_P2;Temp;Humidity;BMP_temperature;BMP_pressure;BME280_temperature;BME280_humidity;BME280_pressure;Samples;Min_cycle;Max_cycle;Signal;HPM_P1;HPM_P2
2020/12/25 00:00:52;;;;;;;13.95;6.93;;;;;;;-0.85;100.00;100222.28;2585894;55;20105;-74
2020/12/25 00:03:20;;;;;;;13.70;7.15;;;;;;;-0.85;100.00;100222.28;2586173;55;20117;-75
2020/12/25 00:05:49;;;;;;;13.13;7.35;;;;;;;-0.84;100.00;100224.00;2587415;55;20132;-74
2020/12/25 00:08:16;;;;;;;19.15;7.40;;;;;;;-0.88;100.00;100215.38;2586045;55;20212;-75
2020/12/25 00:10:43;;;;;;;15.20;7.78;;;;;;;-0.86;100.00;100225.81;2585962;55;20499;-66
2020/12/25 00:13:10;;;;;;;13.40;7.43;;;;;;;-0.84;100.00;100229.25;2585206;55;20113;-74
2020/12/25 00:15:38;;;;;;;14.45;8.25;;;;;;;-0.81;100.00;100236.97;2584813;55;20127;-73
2020/12/25 00:18:05;;;;;;;15.52;7.35;;;;;;;-0.83;100.00;100232.72;2586482;55;20121;-74
2020/12/25 00:20:33;;;;;;;12.75;6.75;;;;;;;-0.86;100.00;100233.69;2587133;55;20113;-74
2020/12/25 00:23:00;;;;;;;9.75;5.37;;;;;;;-0.81;100.00;100234.34;2584973;55;20642;-66
2020/12/25 00:25:28;;;;;;;12.43;5.68;;;;;;;-0.80;100.00;100235.22;2586397;55;20629;-74
2020/12/25 00:27:56;;;;;;;11.23;6.07;;;;;;;-0.81;100.00;100239.59;2585909;55;20135;-74
2020/12/25 00:30:23;;;;;;;11.27;6.57;;;;;;;-0.81;100.00;100236.97;2586374;55;20135;-66
2020/12/25 00:32:50;;;;;;;9.50;5.45;;;;;;;-0.81;100.00;100244.00;2584040;55;20559;-74
2020/12/25 00:35:18;;;;;;;7.00;3.85;;;;;;;-0.78;100.00;100234.28;2585776;55;20112;-74
2020/12/25 00:37:46;;;;;;;12.00;6.05;;;;;;;-0.82;100.00;100232.66;2586080;55;20105;-74
2020/12/25 00:40:13;;;;;;;11.98;6.22;;;;;;;-0.88;100.00;100230.28;2586427;55;20109;-73
2020/12/25 00:42:55;;;;;;;7.85;5.05;;;;;;;-0.86;100.00;100231.06;2585862;55;20125;-66
2020/12/25 00:45:23;;;;;;;8.60;5.32;;;;;;;-0.85;100.00;100222.28;2586253;55;20112;-66
2020/12/25 00:47:50;;;;;;;9.60;5.72;;;;;;;-0.87;100.00;100231.97;2584883;55;20124;-67
2020/12/25 00:50:17;;;;;;;11.18;6.68;;;;;;;-0.85;100.00;100223.16;2587079;55;20105;-66
2020/12/25 00:52:46;;;;;;;11.20;6.15;;;;;;;-0.92;100.00;100215.56;2584743;55;20117;-74
2020/12/25 00:55:13;;;;;;;10.80;6.10;;;;;;;-0.90;100.00;100224.22;2585921;55;20131;-66
2020/12/25 00:57:41;;;;;;;10.40;5.30;;;;;;;-0.88;100.00;100217.16;2585216;55;20117;-73
2020/12/25 01:00:09;;;;;;;14.07;6.57;;;;;;;-0.94;100.00;100207.78;2585852;55;20127;-73
2020/12/25 01:02:36;;;;;;;9.65;5.10;;;;;;;-0.84;100.00;100216.13;2585942;55;20546;-73
2020/12/25 01:05:03;;;;;;;8.30;4.62;;;;;;;-0.90;100.00;100214.59;2585850;55;20120;-66
2020/12/25 01:07:31;;;;;;;7.22;4.55;;;;;;;-0.90;100.00;100219.84;2586449;55;20109;-67
2020/12/25 01:09:59;;;;;;;8.35;4.87;;;;;;;-0.88;100.00;100222.41;2579486;55;20121;-67
2020/12/25 01:12:26;;;;;;;8.40;4.80;;;;;;;-0.89;100.00;100223.31;2585893;55;20097;-73
2020/12/25 01:14:54;;;;;;;8.95;5.25;;;;;;;-0.86;100.00;100221.44;2584041;55;20109;-67
2020/12/25 01:17:21;;;;;;;8.77;4.97;;;;;;;-0.84;100.00;100218.75;2585772;55;20514;-66
2020/12/25 01:19:48;;;;;;;8.65;4.50;;;;;;;-0.80;100.00;100220.37;2584945;55;20132;-74
2020/12/25 01:22:16;;;;;;;6.57;3.70;;;;;;;-0.79;100.00;100211.59;2585658;55;20132;-67
2020/12/25 01:24:43;;;;;;;6.62;3.72;;;;;;;-0.83;100.00;100212.59;2585770;55;20514;-74
2020/12/25 01:27:11;;;;;;;6.85;3.58;;;;;;;-0.87;100.00;100206.63;2585726;55;20116;-73
2020/12/25 01:29:39;;;;;;;6.53;4.12;;;;;;;-0.95;100.00;100194.72;2586363;55;20161;-66
2020/12/25 01:32:06;;;;;;;8.23;4.50;;;;;;;-0.99;100.00;100197.47;2585075;55;20117;-66
2020/12/25 01:34:34;;;;;;;8.23;5.30;;;;;;;-0.99;100.00;100202.69;2585972;55;20109;-73
2020/12/25 01:37:01;;;;;;;6.37;3.90;;;;;;;-1.00;100.00;100195.75;2584866;55;20267;-73
2020/12/25 01:39:29;;;;;;;6.12;4.07;;;;;;;-1.01;100.00;100199.25;2585552;55;20105;-67
2020/12/25 01:41:56;;;;;;;6.30;3.80;;;;;;;-0.94;100.00;100201.66;2585743;55;20119;-74
2020/12/25 01:44:25;;;;;;;6.47;4.00;;;;;;;-0.94;100.00;100193.81;2584880;55;20836;-74
2020/12/25 01:46:52;;;;;;;8.13;4.25;;;;;;;-0.98;100.00;100191.31;2583860;55;20492;-74
2020/12/25 01:49:20;;;;;;;9.05;4.45;;;;;;;-0.99;100.00;100202.69;2585923;55;20123;-73
2020/12/25 01:51:47;;;;;;;8.10;4.07;;;;;;;-1.01;100.00;100201.88;2588705;55;20130;-67
2020/12/25 01:54:15;;;;;;;7.07;4.55;;;;;;;-1.03;100.00;100192.38;2588629;55;20492;-67
2020/12/25 01:56:43;;;;;;;6.55;4.35;;;;;;;-1.02;100.00;100189.69;2589130;55;20105;-67
2020/12/25 01:59:11;;;;;;;10.18;5.78;;;;;;;-1.05;100.00;100192.41;2588676;55;20622;-73
2020/12/25 02:01:39;;;;;;;12.57;6.78;;;;;;;-1.02;100.00;100194.91;2588581;55;20124;-66
2020/12/25 02:04:07;;;;;;;10.82;6.97;;;;;;;-0.98;100.00;100187.81;2588543;55;20131;-74
2020/12/25 02:06:39;;;;;;;11.57;7.07;;;;;;;-0.94;100.00;100191.19;2588543;55;20116;-66
2020/12/25 02:09:07;;;;;;;12.52;7.45;;;;;;;-0.93;100.00;100182.41;2588486;55;20117;-74
2020/12/25 02:11:37;;;;;;;12.00;7.45;;;;;;;-0.95;100.00;100179.00;2588707;55;20124;-73
2020/12/25 02:14:04;;;;;;;11.40;6.68;;;;;;;-0.96;100.00;100185.16;2588344;55;20108;-74
2020/12/25 02:16:31;;;;;;;11.43;7.32;;;;;;;-1.03;100.00;100172.25;2588626;55;20116;-74
2020/12/25 02:18:59;;;;;;;12.23;6.65;;;;;;;-1.03;100.00;100177.50;2588624;55;20120;-71
2020/12/25 02:21:28;;;;;;;11.82;6.50;;;;;;;-0.97;100.00;100186.91;2588575;55;20135;-66
2020/12/25 02:23:55;;;;;;;10.90;6.68;;;;;;;-0.94;100.00;100178.97;2589006;55;20557;-66
2020/12/25 02:26:22;;;;;;;11.07;6.50;;;;;;;-0.95;100.00;100179.87;2589419;55;20108;-66
2020/12/25 02:28:50;;;;;;;9.32;6.30;;;;;;;-1.00;100.00;100182.66;2589266;55;20279;-74
2020/12/25 02:31:17;;;;;;;8.88;5.62;;;;;;;-1.19;100.00;100142.31;2589519;55;20131;-74
2020/12/25 02:33:45;;;;;;;8.57;5.62;;;;;;;-1.04;100.00;100165.31;2589419;55;20193;-74
2020/12/25 02:36:12;;;;;;;10.95;6.32;;;;;;;-1.04;100.00;100160.09;2589372;55;20134;-74
2020/12/25 02:38:40;;;;;;;9.13;5.53;;;;;;;-1.01;100.00;100165.19;2589408;55;20623;-66
2020/12/25 02:41:07;;;;;;;9.73;6.20;;;;;;;-1.00;100.00;100160.84;2589378;55;20105;-67
2020/12/25 02:43:35;;;;;;;9.25;5.32;;;;;;;-0.96;100.00;100166.81;2589419;55;20117;-74
2020/12/25 02:46:02;;;;;;;9.68;5.47;;;;;;;-0.94;100.00;100163.25;2589294;55;20610;-66
2020/12/25 02:48:29;;;;;;;9.98;6.03;;;;;;;-0.99;100.00;100163.41;2589439;55;20102;-66
2020/12/25 02:50:56;;;;;;;10.80;6.25;;;;;;;-1.02;100.00;100168.72;2589295;55;20121;-74
2020/12/25 02:53:24;;;;;;;8.90;5.70;;;;;;;-1.04;100.00;100170.56;2589442;55;20168;-73
2020/12/25 02:55:52;;;;;;;9.93;5.60;;;;;;;-0.98;100.00;100178.22;2589272;55;20168;-74
2020/12/25 02:58:19;;;;;;;12.35;6.95;;;;;;;-1.06;100.00;100169.75;2589191;55;20127;-66
2020/12/25 03:00:46;;;;;;;10.23;5.87;;;;;;;-1.06;100.00;100169.75;2589270;55;20101;-73
2020/12/25 03:03:14;;;;;;;11.05;6.60;;;;;;;-1.08;100.00;100162.87;2589522;55;20132;-74
2020/12/25 03:05:41;;;;;;;9.15;5.85;;;;;;;-1.14;100.00;100158.72;2589272;55;20754;-66
2020/12/25 03:08:08;;;;;;;10.30;6.00;;;;;;;-1.07;100.00;100164.56;2584149;55;20108;-68
2020/12/25 03:10:36;;;;;;;9.18;5.75;;;;;;;-1.10;100.00;100157.72;2589377;55;20116;-73
2020/12/25 03:13:04;;;;;;;11.32;6.60;;;;;;;-1.13;100.00;100160.41;2589284;55;20112;-65
2020/12/25 03:15:31;;;;;;;10.35;5.80;;;;;;;-1.15;100.00;100151.75;2589198;55;20108;-66
2020/12/25 03:17:59;;;;;;;11.20;6.35;;;;;;;-1.17;100.00;100158.81;2589550;55;20626;-66
2020/12/25 03:20:26;;;;;;;9.27;6.20;;;;;;;-1.14;100.00;100149.09;2589223;55;20627;-67
2020/12/25 03:22:53;;;;;;;9.90;6.82;;;;;;;-1.14;100.00;100154.34;2589468;55;20164;-66
2020/12/25 03:25:21;;;;;;;9.93;6.82;;;;;;;-1.21;100.00;100149.34;2589247;55;20120;-66
2020/12/25 03:27:48;;;;;;;10.38;7.25;;;;;;;-1.17;100.00;100158.81;2589133;55;20127;-66
2020/12/25 03:30:16;;;;;;;11.45;7.10;;;;;;;-1.16;100.00;100150.06;2589221;55;20129;-66
2020/12/25 03:32:44;;;;;;;9.15;5.90;;;;;;;-1.18;100.00;100157.94;2589144;55;20104;-73
2020/12/25 03:35:11;;;;;;;11.48;6.90;;;;;;;-1.17;100.00;100159.66;2588888;55;20541;-66
2020/12/25 03:37:38;;;;;;;10.65;6.20;;;;;;;-1.13;100.00;100152.56;2589029;55;20113;-66
2020/12/25 03:40:06;;;;;;;11.25;7.18;;;;;;;-1.16;100.00;100152.69;2589136;55;20125;-66
2020/12/25 03:42:33;;;;;;;9.88;6.65;;;;;;;-1.23;100.00;100148.56;2589218;55;20553;-66
2020/12/25 03:45:00;;;;;;;11.93;6.78;;;;;;;-1.16;100.00;100156.13;2589012;55;20119;-69
2020/12/25 03:47:28;;;;;;;11.80;6.70;;;;;;;-1.21;100.00;100155.44;2589495;55;20165;-75
2020/12/25 03:49:56;;;;;;;10.80;6.97;;;;;;;-1.27;100.00;100142.56;2589664;55;20105;-67
2020/12/25 03:52:23;;;;;;;10.98;6.90;;;;;;;-1.29;100.00;100142.66;2589026;55;20123;-73
2020/12/25 03:54:51;;;;;;;10.45;6.95;;;;;;;-1.27;100.00;100142.56;2589056;55;20119;-66
2020/12/25 03:57:18;;;;;;;11.02;6.60;;;;;;;-1.23;100.00;100143.31;2589049;55;20168;-66
2020/12/25 03:59:45;;;;;;;10.93;6.35;;;;;;;-1.29;100.00;100149.63;2589139;55;20135;-66
2020/12/25 04:02:13;;;;;;;13.00;7.68;;;;;;;-1.35;100.00;100147.22;2588975;55;20097;-66
2020/12/25 04:04:41;;;;;;;12.30;7.40;;;;;;;-1.31;100.00;100146.22;2589087;55;20108;-74
2020/12/25 04:07:08;;;;;;;10.73;6.87;;;;;;;-1.35;100.00;100140.22;2589105;55;20168;-74
2020/12/25 04:09:36;;;;;;;15.55;8.40;;;;;;;-1.37;100.00;100149.91;2589115;55;20127;-66
2020/12/25 04:12:03;;;;;;;15.10;8.88;;;;;;;-1.38;100.00;100145.56;2589064;55;20138;-73
2020/12/25 04:14:31;;;;;;;13.40;9.02;;;;;;;-1.37;100.00;100142.06;2588918;55;20120;-66
2020/12/25 04:16:58;;;;;;;14.73;9.00;;;;;;;-1.42;100.00;100133.50;2588986;55;20113;-66
2020/12/25 04:19:25;;;;;;;17.35;9.07;;;;;;;-1.40;100.00;100142.16;2583901;55;20124;-66
2020/12/25 04:21:53;;;;;;;14.77;8.30;;;;;;;-1.44;100.00;100136.19;2589079;55;20131;-66
2020/12/25 04:24:21;;;;;;;13.52;8.43;;;;;;;-1.43;100.00;100145.72;2589186;55;20142;-66
2020/12/25 04:26:48;;;;;;;10.55;6.43;;;;;;;-1.45;100.00;100151.91;2589040;55;20507;-66
2020/12/25 04:29:15;;;;;;;15.02;8.23;;;;;;;-1.50;100.00;100146.84;2589030;55;20668;-67
2020/12/25 04:31:42;;;;;;;12.55;7.10;;;;;;;-1.44;100.00;100140.53;2589196;55;20109;-66
2020/12/25 04:34:10;;;;;;;15.73;8.85;;;;;;;-1.47;100.00;100148.50;2588825;55;20128;-66
2020/12/25 04:36:38;;;;;;;14.98;7.03;;;;;;;-1.48;100.00;100144.19;2589043;55;20690;-73
2020/12/25 04:39:07;;;;;;;17.08;10.18;;;;;;;-1.47;100.00;100156.34;2584002;55;20113;-73
2020/12/25 04:41:35;;;;;;;15.23;8.60;;;;;;;-1.54;100.00;100140.84;2588828;55;20132;-73
2020/12/25 04:44:04;;;;;;;14.30;8.60;;;;;;;-1.57;100.00;100135.75;2588900;55;20606;-73
2020/12/25 04:46:31;;;;;;;13.77;7.90;;;;;;;-1.51;100.00;100144.28;2588612;55;20131;-73
2020/12/25 04:49:00;;;;;;;16.10;9.75;;;;;;;-1.64;100.00;100134.22;2588871;55;20157;-73
2020/12/25 04:51:27;;;;;;;17.08;10.43;;;;;;;-1.69;100.00;100136.16;2588969;55;20105;-74
2020/12/25 04:53:55;;;;;;;18.37;9.77;;;;;;;-1.74;100.00;100125.84;2588866;55;20130;-73
2020/12/25 04:56:24;;;;;;;14.13;9.02;;;;;;;-1.72;100.00;100128.37;2589199;55;20483;-72
2020/12/25 04:58:53;;;;;;;15.68;9.27;;;;;;;-1.74;100.00;100140.69;2588788;55;20127;-66
2020/12/25 05:01:20;;;;;;;17.37;10.38;;;;;;;-1.66;100.00;100135.19;2588767;55;20131;-73
2020/12/25 05:03:48;;;;;;;17.42;9.77;;;;;;;-1.66;100.00;100136.03;2588750;55;20131;-73
2020/12/25 05:06:17;;;;;;;16.30;9.73;;;;;;;-1.66;100.00;100138.66;2589246;55;20699;-66
2020/12/25 05:08:46;;;;;;;19.00;12.13;;;;;;;-1.74;100.00;100127.59;2588753;55;20113;-66
2020/12/25 05:11:15;;;;;;;16.55;10.88;;;;;;;-1.69;100.00;100130.94;2588693;55;20108;-66
2020/12/25 05:13:45;;;;;;;20.48;10.77;;;;;;;-1.64;100.00;100138.63;2588689;55;20633;-66
2020/12/25 05:16:14;;;;;;;17.15;10.23;;;;;;;-1.62;100.00;100142.88;2588638;55;20119;-73
2020/12/25 05:18:45;;;;;;;17.35;10.20;;;;;;;-1.73;100.00;100129.31;2588683;55;20118;-66
2020/12/25 05:21:14;;;;;;;19.05;10.43;;;;;;;-1.72;100.00;100144.97;2588667;55;20115;-66
2020/12/25 05:23:43;;;;;;;16.42;9.43;;;;;;;-1.69;100.00;100137.00;2588749;55;20688;-73
2020/12/25 05:26:12;;;;;;;18.92;11.63;;;;;;;-1.78;100.00;100131.22;2588685;55;20135;-66
2020/12/25 05:28:41;;;;;;;22.55;12.23;;;;;;;-1.82;100.00;100141.78;2588717;55;20782;-73
2020/12/25 05:31:10;;;;;;;18.10;10.50;;;;;;;-1.80;100.00;100148.72;2588712;55;20130;-66
2020/12/25 05:33:38;;;;;;;20.12;11.32;;;;;;;-1.83;100.00;100142.69;2588544;55;20591;-73
2020/12/25 05:36:07;;;;;;;19.80;12.10;;;;;;;-1.85;100.00;100139.28;2588606;55;20647;-66
2020/12/25 05:38:37;;;;;;;20.77;12.23;;;;;;;-1.86;100.00;100134.94;2588564;55;20105;-72
2020/12/25 05:41:05;;;;;;;24.37;14.15;;;;;;;-1.84;100.00;100138.38;2588573;55;20515;-66
2020/12/25 05:43:33;;;;;;;29.83;17.25;;;;;;;-1.89;100.00;100132.44;2588571;55;20115;-72
2020/12/25 05:46:01;;;;;;;32.47;17.75;;;;;;;-1.89;100.00;100145.53;2590443;55;20139;-66
2020/12/25 05:48:29;;;;;;;22.98;12.07;;;;;;;-1.83;100.00;100144.47;2590839;55;20113;-66
2020/12/25 05:50:56;;;;;;;26.33;15.38;;;;;;;-1.87;100.00;100140.22;2590552;55;20120;-73
2020/12/25 05:53:24;;;;;;;24.00;13.62;;;;;;;-1.91;100.00;100136.00;2591081;55;20127;-71
2020/12/25 05:55:52;;;;;;;21.58;11.20;;;;;;;-1.93;100.00;100149.13;2590434;55;20510;-66
2020/12/25 05:58:21;;;;;;;17.62;10.40;;;;;;;-1.94;100.00;100152.63;2589927;55;20662;-73
2020/12/25 06:00:48;;;;;;;21.35;11.10;;;;;;;-1.97;100.00;100156.19;2589539;55;20122;-66
2020/12/25 06:03:16;;;;;;;22.02;11.48;;;;;;;-2.00;100.00;100145.00;2589482;55;20128;-65
2020/12/25 06:05:46;;;;;;;20.45;10.82;;;;;;;-2.03;100.00;100151.19;2589399;55;20581;-71
2020/12/25 06:08:18;;;;;;;14.85;8.65;;;;;;;-1.90;100.00;100151.66;2589319;55;20123;-72
2020/12/25 06:10:47;;;;;;;18.48;10.25;;;;;;;-2.05;100.00;100154.75;2589402;55;20467;-65
2020/12/25 06:13:16;;;;;;;17.87;11.18;;;;;;;-2.13;100.00;100153.22;2589213;55;20622;-65
2020/12/25 06:15:49;;;;;;;17.73;8.85;;;;;;;-2.08;100.00;100149.63;2589424;55;20645;-65
2020/12/25 06:18:31;;;;;;;21.10;11.65;;;;;;;-2.21;100.00;100147.38;2589597;55;20131;-68
2020/12/25 06:21:04;;;;;;;19.65;11.12;;;;;;;-2.20;100.00;100149.13;2589392;55;20128;-69
2020/12/25 06:23:32;;;;;;;19.73;10.15;;;;;;;-2.26;100.00;100146.69;2589437;55;20110;-64
2020/12/25 06:26:06;;;;;;;18.15;11.00;;;;;;;-2.24;100.00;100150.97;2589397;55;20124;-65
2020/12/25 06:28:40;;;;;;;21.37;11.43;;;;;;;-2.34;100.00;100157.38;2589395;55;20097;-72
2020/12/25 06:31:09;;;;;;;22.92;13.10;;;;;;;-2.34;100.00;100143.44;2589654;55;20117;-66
2020/12/25 06:33:38;;;;;;;25.45;12.88;;;;;;;-2.41;100.00;100146.22;2589428;55;20112;-66
2020/12/25 06:36:06;;;;;;;25.67;12.80;;;;;;;-2.36;100.00;100137.41;2589375;55;20506;-70
2020/12/25 06:38:42;;;;;;;22.58;12.85;;;;;;;-2.36;100.00;100145.25;2587487;55;20139;-69
2020/12/25 06:41:10;;;;;;;27.52;14.68;;;;;;;-2.46;100.00;100132.47;2587379;55;20135;-66
2020/12/25 06:43:38;;;;;;;24.12;13.18;;;;;;;-2.45;100.00;100142.00;2587570;55;20138;-70
2020/12/25 06:46:05;;;;;;;22.92;13.73;;;;;;;-2.44;100.00;100143.72;2588003;55;20120;-66
2020/12/25 06:48:35;;;;;;;26.08;13.25;;;;;;;-2.40;100.00;100137.53;2587569;55;20124;-66
2020/12/25 06:51:02;;;;;;;28.20;14.25;;;;;;;-2.39;100.00;100141.84;2587565;55;20131;-69
2020/12/25 06:53:35;;;;;;;22.58;12.48;;;;;;;-2.38;100.00;100133.09;2588904;55;20551;-66
2020/12/25 06:56:14;;;;;;;21.00;10.75;;;;;;;-2.34;100.00;100122.53;2589228;55;20126;-66
2020/12/25 06:58:44;;;;;;;27.17;14.52;;;;;;;-2.35;100.00;100139.13;2589348;55;20120;-69
2020/12/25 07:01:13;;;;;;;26.25;14.25;;;;;;;-2.38;100.00;100142.69;2589300;55;20120;-65
2020/12/25 07:03:41;;;;;;;23.40;12.35;;;;;;;-2.40;100.00;100134.91;2584068;55;20126;-66
2020/12/25 07:06:10;;;;;;;21.95;13.35;;;;;;;-2.40;100.00;100137.53;2589574;55;20112;-66
2020/12/25 07:08:50;;;;;;;24.52;13.40;;;;;;;-2.35;100.00;100133.91;2589311;55;20615;-66
2020/12/25 07:11:19;;;;;;;25.52;13.30;;;;;;;-2.36;100.00;100140.03;2589474;55;20637;-66
2020/12/25 07:13:47;;;;;;;24.58;11.05;;;;;;;-2.39;100.00;100136.63;2589260;55;20108;-66
2020/12/25 07:16:15;;;;;;;31.05;15.20;;;;;;;-2.39;100.00;100140.97;2589278;55;20124;-69
2020/12/25 07:18:42;;;;;;;29.80;14.35;;;;;;;-2.39;100.00;100141.84;2589120;55;20131;-66
2020/12/25 07:21:10;;;;;;;25.95;12.90;;;;;;;-2.40;100.00;100144.50;2589169;55;20101;-69
2020/12/25 07:23:45;;;;;;;25.95;13.00;;;;;;;-2.33;100.00;100151.25;2589312;55;20135;-66
2020/12/25 07:26:14;;;;;;;30.23;16.35;;;;;;;-2.34;100.00;100146.06;2589151;55;20123;-66
2020/12/25 07:28:41;;;;;;;20.42;10.70;;;;;;;-2.38;100.00;100146.16;2589134;55;20116;-70
2020/12/25 07:31:09;;;;;;;22.40;11.20;;;;;;;-2.35;100.00;100154.81;2589176;55;20109;-69
2020/12/25 07:33:36;;;;;;;26.80;12.32;;;;;;;-2.38;100.00;100150.50;2584286;55;20157;-69
2020/12/25 07:36:09;;;;;;;28.42;13.75;;;;;;;-2.43;100.00;100158.50;2589190;55;20108;-70
2020/12/25 07:38:37;;;;;;;19.85;11.20;;;;;;;-2.49;100.00;100150.00;2589195;55;20485;-69
2020/12/25 07:41:05;;;;;;;19.98;11.23;;;;;;;-2.51;100.00;100157.88;2589190;55;20113;-66
2020/12/25 07:43:32;;;;;;;23.52;12.63;;;;;;;-2.52;100.00;100156.16;2589041;55;20121;-66
2020/12/25 07:46:00;;;;;;;22.45;11.48;;;;;;;-2.52;100.00;100158.75;2589073;55;20108;-70
2020/12/25 07:48:27;;;;;;;24.77;12.75;;;;;;;-2.48;100.00;100163.03;2589191;55;20120;-66
2020/12/25 07:50:56;;;;;;;26.40;13.65;;;;;;;-2.50;100.00;100161.34;2589308;55;20529;-66
2020/12/25 07:53:23;;;;;;;31.05;12.95;;;;;;;-2.46;100.00;100171.66;2589024;55;20956;-70
2020/12/25 07:55:50;;;;;;;23.45;12.37;;;;;;;-2.44;100.00;100161.16;2589101;55;20118;-70
2020/12/25 07:58:19;;;;;;;28.02;14.38;;;;;;;-2.45;100.00;100167.31;2589075;55;20135;-70
2020/12/25 08:00:47;;;;;;;21.92;12.00;;;;;;;-2.45;100.00;100156.84;2589135;55;20137;-66
2020/12/25 08:03:14;;;;;;;24.08;12.73;;;;;;;-2.48;100.00;100157.78;2589120;55;20144;-70
2020/12/25 08:05:42;;;;;;;20.33;11.35;;;;;;;-2.47;100.00;100156.88;2589072;55;20152;-66
2020/12/25 08:08:11;;;;;;;22.00;11.50;;;;;;;-2.47;100.00;100150.78;2588994;55;20556;-66
2020/12/25 08:10:41;;;;;;;25.52;12.30;;;;;;;-2.51;100.00;100144.81;2589078;55;20161;-70
2020/12/25 08:13:09;;;;;;;34.45;15.38;;;;;;;-2.50;100.00;100145.66;2588868;55;20694;-66
2020/12/25 08:15:38;;;;;;;34.28;16.20;;;;;;;-2.50;100.00;100143.06;2589346;55;20113;-66
2020/12/25 08:18:07;;;;;;;35.30;16.05;;;;;;;-2.46;100.00;100148.16;2589013;55;20160;-66
2020/12/25 08:20:35;;;;;;;29.98;15.85;;;;;;;-2.55;100.00;100140.59;2589011;55;20116;-69
2020/12/25 08:23:03;;;;;;;38.38;17.48;;;;;;;-2.69;100.00;100139.25;2588971;55;20127;-66
2020/12/25 08:25:32;;;;;;;39.03;17.55;;;;;;;-2.63;100.00;100153.00;2588996;55;20127;-69
2020/12/25 08:28:00;;;;;;;65.30;26.83;;;;;;;-2.68;100.00;100143.56;2589022;55;20124;-70
2020/12/25 08:30:27;;;;;;;52.03;23.70;;;;;;;-2.68;100.00;100151.41;2589043;55;20644;-66
2020/12/25 08:33:00;;;;;;;47.70;22.45;;;;;;;-2.71;100.00;100141.03;2589040;55;20116;-70
2020/12/25 08:35:28;;;;;;;27.23;12.00;;;;;;;-2.62;100.00;100137.31;2588912;55;20533;-66
2020/12/25 08:37:57;;;;;;;24.55;12.65;;;;;;;-2.72;100.00;100146.31;2588974;55;20138;-69
2020/12/25 08:40:29;;;;;;;28.75;13.88;;;;;;;-2.71;100.00;100141.03;2588982;55;20127;-66
2020/12/25 08:43:09;;;;;;;28.12;14.75;;;;;;;-2.68;100.00;100146.19;2589046;55;20116;-71
2020/12/25 08:45:37;;;;;;;37.88;18.75;;;;;;;-2.77;100.00;100145.56;2589046;55;20112;-66
2020/12/25 08:48:13;;;;;;;42.62;20.83;;;;;;;-2.74;100.00;100146.34;2588756;55;20495;-70
2020/12/25 08:50:41;;;;;;;29.77;15.93;;;;;;;-2.76;100.00;100153.38;2589167;55;20653;-66
2020/12/25 08:53:20;;;;;;;32.42;15.57;;;;;;;-2.71;100.00;100150.62;2588796;55;20175;-70
2020/12/25 08:55:48;;;;;;;36.72;18.30;;;;;;;-2.76;100.00;100152.50;2589135;55;20112;-66
2020/12/25 08:58:20;;;;;;;44.17;22.85;;;;;;;-2.80;100.00;100157.00;2588831;55;20536;-70
2020/12/25 09:00:58;;;;;;;42.00;20.23;;;;;;;-2.73;100.00;100157.66;2588900;55;20113;-66
2020/12/25 09:03:36;;;;;;;38.08;18.87;;;;;;;-2.78;100.00;100144.72;2588916;55;20244;-70
2020/12/25 09:06:04;;;;;;;32.10;16.87;;;;;;;-2.83;100.00;100152.69;2589031;55;20116;-66
2020/12/25 09:08:32;;;;;;;45.10;21.87;;;;;;;-2.86;100.00;100152.75;2588854;55;20123;-66
2020/12/25 09:10:59;;;;;;;35.25;18.90;;;;;;;-2.88;100.00;100151.12;2588928;55;20112;-70
2020/12/25 09:13:26;;;;;;;37.90;17.12;;;;;;;-2.84;100.00;100153.59;2588873;55;20135;-66
2020/12/25 09:15:54;;;;;;;40.83;21.67;;;;;;;-2.96;100.00;100141.75;2588796;55;20498;-66
2020/12/25 09:18:21;;;;;;;36.70;20.85;;;;;;;-2.94;100.00;100155.59;2588790;55;20112;-70
2020/12/25 09:20:49;;;;;;;59.75;31.73;;;;;;;-2.89;100.00;100163.31;2588956;55;20117;-70
2020/12/25 09:23:18;;;;;;;50.25;28.05;;;;;;;-2.92;100.00;100157.31;2588874;55;20131;-70
2020/12/25 09:25:45;;;;;;;32.47;18.45;;;;;;;-2.92;100.00;100152.97;2589101;55;20164;-70
2020/12/25 09:28:12;;;;;;;34.72;17.67;;;;;;;-2.96;100.00;100156.53;2588889;55;20126;-66
2020/12/25 09:30:40;;;;;;;34.80;16.80;;;;;;;-2.97;100.00;100155.69;2588825;55;20120;-70
2020/12/25 09:33:07;;;;;;;34.50;18.08;;;;;;;-2.99;100.00;100164.47;2588803;55;20644;-70
2020/12/25 09:35:35;;;;;;;29.12;13.75;;;;;;;-3.00;100.00;100168.84;2588865;55;20119;-69
2020/12/25 09:38:04;;;;;;;31.10;14.48;;;;;;;-3.03;100.00;100166.31;2588857;55;20628;-69
2020/12/25 09:40:31;;;;;;;30.23;15.52;;;;;;;-3.07;100.00;100167.28;2589152;55;20207;-66
2020/12/25 09:42:58;;;;;;;27.58;13.95;;;;;;;-3.07;100.00;100172.50;2588803;55;20109;-66
2020/12/25 09:45:26;;;;;;;27.35;14.82;;;;;;;-3.07;100.00;100170.75;2588717;55;20631;-69
2020/12/25 09:47:53;;;;;;;24.40;12.45;;;;;;;-2.99;100.00;100178.38;2588848;55;20131;-70
2020/12/25 09:50:20;;;;;;;29.90;17.42;;;;;;;-3.02;100.00;100173.22;2588912;55;20106;-66
2020/12/25 09:52:48;;;;;;;79.50;44.78;;;;;;;-3.09;100.00;100171.72;2588891;55;20127;-69
2020/12/25 09:55:16;;;;;;;38.92;22.13;;;;;;;-3.10;100.00;100175.22;2588719;55;20124;-67
2020/12/25 09:57:43;;;;;;;38.45;21.37;;;;;;;-3.11;100.00;100170.88;2588643;55;20815;-68
2020/12/25 10:00:12;;;;;;;30.83;15.75;;;;;;;-3.10;100.00;100172.59;2588675;55;20116;-67
2020/12/25 10:02:40;;;;;;;33.45;15.73;;;;;;;-3.09;100.00;100158.66;2588731;55;20746;-68
2020/12/25 10:05:08;;;;;;;36.83;17.67;;;;;;;-3.17;100.00;100158.84;2588770;55;20485;-72
2020/12/25 10:07:36;;;;;;;39.22;18.85;;;;;;;-3.19;100.00;100155.44;2588606;55;20122;-68
2020/12/25 10:10:04;;;;;;;36.22;16.60;;;;;;;-3.12;100.00;100161.31;2588681;55;20646;-71
2020/12/25 10:12:33;;;;;;;32.58;17.67;;;;;;;-3.16;100.00;100163.16;2588785;55;20123;-67
2020/12/25 10:15:00;;;;;;;37.75;17.75;;;;;;;-3.18;100.00;100159.75;2588680;55;20804;-66
2020/12/25 10:17:28;;;;;;;60.35;25.27;;;;;;;-3.17;100.00;100150.19;2588675;55;20113;-71
2020/12/25 10:19:55;;;;;;;43.53;18.45;;;;;;;-3.16;100.00;100144.06;2588774;55;20650;-68
2020/12/25 10:22:22;;;;;;;34.75;16.48;;;;;;;-3.23;100.00;100149.44;2588619;55;20522;-68
2020/12/25 10:24:50;;;;;;;29.87;15.75;;;;;;;-3.24;100.00;100142.50;2588601;55;20111;-68
2020/12/25 10:27:17;;;;;;;23.83;12.02;;;;;;;-3.16;100.00;100144.06;2588849;55;20116;-66
2020/12/25 10:29:45;;;;;;;43.55;20.12;;;;;;;-3.20;100.00;100147.66;2588575;55;20120;-68
2020/12/25 10:32:12;;;;;;;33.15;16.70;;;;;;;-3.26;100.00;100143.44;2588894;55;20153;-71
2020/12/25 10:34:40;;;;;;;32.78;15.43;;;;;;;-3.15;100.00;100143.16;2588766;55;20121;-68
2020/12/25 10:37:07;;;;;;;33.00;16.40;;;;;;;-3.23;100.00;100146.81;2588489;55;20112;-71
2020/12/25 10:39:34;;;;;;;43.53;19.00;;;;;;;-3.26;100.00;100146.03;2588547;55;20518;-67
2020/12/25 10:42:06;;;;;;;38.58;21.05;;;;;;;-3.28;100.00;100148.72;2588519;55;20135;-71
2020/12/25 10:44:34;;;;;;;32.03;16.20;;;;;;;-3.32;100.00;100144.44;2588918;55;20123;-67
2020/12/25 10:47:02;;;;;;;45.35;22.60;;;;;;;-3.31;100.00;100142.72;2589720;55;20678;-67
2020/12/25 10:49:30;;;;;;;34.28;18.12;;;;;;;-3.28;100.00;100142.63;2584354;55;20117;-70
2020/12/25 10:51:57;;;;;;;42.33;22.30;;;;;;;-3.29;100.00;100141.78;2589417;55;20120;-70
2020/12/25 10:54:25;;;;;;;44.20;22.23;;;;;;;-3.33;100.00;100142.75;2589280;55;20128;-67
2020/12/25 10:56:52;;;;;;;33.65;20.37;;;;;;;-3.31;100.00;100151.38;2589441;55;20120;-71
2020/12/25 10:59:19;;;;;;;34.58;21.20;;;;;;;-3.30;100.00;100147.91;2589392;55;20127;-67
2020/12/25 11:01:48;;;;;;;37.80;23.52;;;;;;;-3.27;100.00;100139.97;2589466;55;20142;-68
2020/12/25 11:04:16;;;;;;;58.75;36.08;;;;;;;-3.28;100.00;100140.00;2589219;55;20534;-67
2020/12/25 11:06:44;;;;;;;28.12;14.73;;;;;;;-3.28;100.00;100140.88;2589326;55;20633;-67
2020/12/25 11:09:11;;;;;;;44.25;21.52;;;;;;;-3.28;100.00;100140.88;2589389;55;20108;-70
2020/12/25 11:11:40;;;;;;;46.88;21.90;;;;;;;-3.33;100.00;100134.91;2589353;55;20117;-70